sensor_id;sensor_type;location;lat;lon;timestamp;temperature;humidity
41471;DHT22;27211;51.220;5.308;2024-03-07T00:01:05;6.90;99.90
41471;DHT22;27211;51.220;5.308;2024-03-07T00:03:31;6.90;99.90
41471;DHT22;27211;51.220;5.308;2024-03-07T00:05:57;6.90;99.90
41471;DHT22;27211;51.220;5.308;2024-03-07T00:08:22;6.90;99.90
41471;DHT22;27211;51.220;5.308;2024-03-07T00:10:48;6.90;99.90
41471;DHT22;27211;51.220;5.308;2024-03-07T00:13:14;6.80;99.90
41471;DHT22;27211;51.220;5.308;2024-03-07T00:15:40;6.70;99.90
41471;DHT22;27211;51.220;5.308;2024-03-07T00:18:06;6.70;99.90
41471;DHT22;27211;51.220;5.308;2024-03-07T00:20:32;6.60;99.90
41471;DHT22;27211;51.220;5.308;2024-03-07T00:22:58;6.60;99.90
41471;DHT22;27211;51.220;5.308;2024-03-07T00:25:23;6.60;99.90
41471;DHT22;27211;51.220;5.308;2024-03-07T00:27:49;6.60;99.90
41471;DHT22;27211;51.220;5.308;2024-03-07T00:30:18;6.60;99.90
41471;DHT22;27211;51.220;5.308;2024-03-07T00:32:44;6.60;99.90
41471;DHT22;27211;51.220;5.308;2024-03-07T00:35:10;6.50;99.90
41471;DHT22;27211;51.220;5.308;2024-03-07T00:37:35;6.50;99.90
41471;DHT22;27211;51.220;5.308;2024-03-07T00:40:01;6.50;99.90
41471;DHT22;27211;51.220;5.308;2024-03-07T00:42:28;6.40;99.90
41471;DHT22;27211;51.220;5.308;2024-03-07T00:44:54;6.40;99.90
41471;DHT22;27211;51.220;5.308;2024-03-07T00:47:20;6.40;99.90
41471;DHT22;27211;51.220;5.308;2024-03-07T00:49:45;6.50;99.90
41471;DHT22;27211;51.220;5.308;2024-03-07T00:52:12;6.40;99.90
41471;DHT22;27211;51.220;5.308;2024-03-07T00:54:37;6.40;99.90
41471;DHT22;27211;51.220;5.308;2024-03-07T00:57:03;6.40;99.90
41471;DHT22;27211;51.220;5.308;2024-03-07T00:59:29;6.30;99.90
41471;DHT22;27211;51.220;5.308;2024-03-07T01:01:55;6.20;99.90
41471;DHT22;27211;51.220;5.308;2024-03-07T01:04:20;6.20;99.90
41471;DHT22;27211;51.220;5.308;2024-03-07T01:06:47;6.20;99.90
41471;DHT22;27211;51.220;5.308;2024-03-07T01:09:13;6.20;99.90
41471;DHT22;27211;51.220;5.308;2024-03-07T01:11:40;6.20;99.90
41471;DHT22;27211;51.220;5.308;2024-03-07T01:14:06;6.10;99.90
41471;DHT22;27211;51.220;5.308;2024-03-07T01:16:32;6.10;99.90
41471;DHT22;27211;51.220;5.308;2024-03-07T01:18:57;6.10;99.90
41471;DHT22;27211;51.220;5.308;2024-03-07T01:21:23;6.20;99.90
41471;DHT22;27211;51.220;5.308;2024-03-07T01:23:49;6.20;99.90
41471;DHT22;27211;51.220;5.308;2024-03-07T01:26:15;6.10;99.90
41471;DHT22;27211;51.220;5.308;2024-03-07T01:28:40;6.10;99.90
41471;DHT22;27211;51.220;5.308;2024-03-07T01:31:06;6.10;99.90
41471;DHT22;27211;51.220;5.308;2024-03-07T01:33:32;6.10;99.90
41471;DHT22;27211;51.220;5.308;2024-03-07T01:35:57;6.10;99.90
41471;DHT22;27211;51.220;5.308;2024-03-07T01:38:23;6.10;99.90
41471;DHT22;27211;51.220;5.308;2024-03-07T01:40:48;6.00;99.90
41471;DHT22;27211;51.220;5.308;2024-03-07T01:43:14;5.90;99.90
41471;DHT22;27211;51.220;5.308;2024-03-07T01:45:40;5.80;99.90
41471;DHT22;27211;51.220;5.308;2024-03-07T01:48:06;5.80;99.90
41471;DHT22;27211;51.220;5.308;2024-03-07T01:50:33;5.70;99.90
41471;DHT22;27211;51.220;5.308;2024-03-07T01:52:59;5.70;99.90
41471;DHT22;27211;51.220;5.308;2024-03-07T01:55:24;5.60;99.90
41471;DHT22;27211;51.220;5.308;2024-03-07T01:57:50;5.70;99.90
41471;DHT22;27211;51.220;5.308;2024-03-07T02:00:15;5.60;99.90
41471;DHT22;27211;51.220;5.308;2024-03-07T02:02:43;5.70;99.90
41471;DHT22;27211;51.220;5.308;2024-03-07T02:05:09;5.70;99.90
41471;DHT22;27211;51.220;5.308;2024-03-07T02:07:35;5.70;99.90
41471;DHT22;27211;51.220;5.308;2024-03-07T02:10:04;5.70;99.90
41471;DHT22;27211;51.220;5.308;2024-03-07T02:12:30;5.70;99.90
41471;DHT22;27211;51.220;5.308;2024-03-07T02:14:56;5.80;99.90
41471;DHT22;27211;51.220;5.308;2024-03-07T02:17:25;5.70;99.90
41471;DHT22;27211;51.220;5.308;2024-03-07T02:19:50;5.50;99.90
41471;DHT22;27211;51.220;5.308;2024-03-07T02:22:18;5.60;99.90
41471;DHT22;27211;51.220;5.308;2024-03-07T02:24:44;5.60;99.90
41471;DHT22;27211;51.220;5.308;2024-03-07T02:27:10;5.50;99.90
41471;DHT22;27211;51.220;5.308;2024-03-07T02:29:36;5.50;99.90
41471;DHT22;27211;51.220;5.308;2024-03-07T02:32:02;5.50;99.90
41471;DHT22;27211;51.220;5.308;2024-03-07T02:34:28;5.60;99.90
41471;DHT22;27211;51.220;5.308;2024-03-07T02:36:53;5.50;99.90
41471;DHT22;27211;51.220;5.308;2024-03-07T02:39:19;5.50;99.90
41471;DHT22;27211;51.220;5.308;2024-03-07T02:41:46;5.50;99.90
41471;DHT22;27211;51.220;5.308;2024-03-07T02:44:13;5.50;99.90
41471;DHT22;27211;51.220;5.308;2024-03-07T02:46:39;5.50;99.90
41471;DHT22;27211;51.220;5.308;2024-03-07T02:49:05;5.50;99.90
41471;DHT22;27211;51.220;5.308;2024-03-07T02:51:31;5.50;99.90
41471;DHT22;27211;51.220;5.308;2024-03-07T02:53:56;5.40;99.90
41471;DHT22;27211;51.220;5.308;2024-03-07T02:56:23;5.40;99.90
41471;DHT22;27211;51.220;5.308;2024-03-07T02:58:49;5.30;99.90
41471;DHT22;27211;51.220;5.308;2024-03-07T03:01:14;5.30;99.90
41471;DHT22;27211;51.220;5.308;2024-03-07T03:03:40;5.40;99.90
41471;DHT22;27211;51.220;5.308;2024-03-07T03:06:08;5.30;99.90
41471;DHT22;27211;51.220;5.308;2024-03-07T03:08:34;5.20;99.90
41471;DHT22;27211;51.220;5.308;2024-03-07T03:11:00;5.20;99.90
41471;DHT22;27211;51.220;5.308;2024-03-07T03:13:26;5.10;99.90
41471;DHT22;27211;51.220;5.308;2024-03-07T03:15:54;5.00;99.90
41471;DHT22;27211;51.220;5.308;2024-03-07T03:18:22;5.10;99.90
41471;DHT22;27211;51.220;5.308;2024-03-07T03:20:49;5.30;99.90
41471;DHT22;27211;51.220;5.308;2024-03-07T03:23:15;5.10;99.90
41471;DHT22;27211;51.220;5.308;2024-03-07T03:25:41;5.10;99.90
41471;DHT22;27211;51.220;5.308;2024-03-07T03:28:07;5.10;99.90
41471;DHT22;27211;51.220;5.308;2024-03-07T03:30:38;5.10;99.90
41471;DHT22;27211;51.220;5.308;2024-03-07T03:33:04;5.00;99.90
41471;DHT22;27211;51.220;5.308;2024-03-07T03:35:31;5.10;99.90
41471;DHT22;27211;51.220;5.308;2024-03-07T03:37:56;5.00;99.90
41471;DHT22;27211;51.220;5.308;2024-03-07T03:40:22;5.00;99.90
41471;DHT22;27211;51.220;5.308;2024-03-07T03:42:48;5.10;99.90
41471;DHT22;27211;51.220;5.308;2024-03-07T03:45:14;5.10;99.90
41471;DHT22;27211;51.220;5.308;2024-03-07T03:47:43;5.30;99.90
41471;DHT22;27211;51.220;5.308;2024-03-07T03:50:09;5.10;99.90
41471;DHT22;27211;51.220;5.308;2024-03-07T03:52:36;5.00;99.90
41471;DHT22;27211;51.220;5.308;2024-03-07T03:55:02;5.30;99.90
41471;DHT22;27211;51.220;5.308;2024-03-07T03:57:29;5.40;99.90
41471;DHT22;27211;51.220;5.308;2024-03-07T03:59:56;5.30;99.90
41471;DHT22;27211;51.220;5.308;2024-03-07T04:02:21;5.50;99.90
41471;DHT22;27211;51.220;5.308;2024-03-07T04:04:47;5.60;99.90
41471;DHT22;27211;51.220;5.308;2024-03-07T04:07:14;5.50;99.90
41471;DHT22;27211;51.220;5.308;2024-03-07T04:09:41;5.50;99.90
41471;DHT22;27211;51.220;5.308;2024-03-07T04:12:07;5.60;99.90
41471;DHT22;27211;51.220;5.308;2024-03-07T04:14:42;5.70;99.90
41471;DHT22;27211;51.220;5.308;2024-03-07T04:17:08;5.70;99.90
41471;DHT22;27211;51.220;5.308;2024-03-07T04:19:34;5.70;99.90
41471;DHT22;27211;51.220;5.308;2024-03-07T04:22:00;5.70;99.90
41471;DHT22;27211;51.220;5.308;2024-03-07T04:24:26;5.70;99.90
41471;DHT22;27211;51.220;5.308;2024-03-07T04:26:51;5.60;99.90
41471;DHT22;27211;51.220;5.308;2024-03-07T04:29:19;5.70;99.90
41471;DHT22;27211;51.220;5.308;2024-03-07T04:31:44;5.70;99.90
41471;DHT22;27211;51.220;5.308;2024-03-07T04:34:10;5.70;99.90
41471;DHT22;27211;51.220;5.308;2024-03-07T04:36:35;5.60;99.90
41471;DHT22;27211;51.220;5.308;2024-03-07T04:39:01;5.60;99.90
41471;DHT22;27211;51.220;5.308;2024-03-07T04:41:29;5.90;99.90
41471;DHT22;27211;51.220;5.308;2024-03-07T04:43:54;5.90;99.90
41471;DHT22;27211;51.220;5.308;2024-03-07T04:46:20;5.90;99.90
41471;DHT22;27211;51.220;5.308;2024-03-07T04:48:46;5.90;99.90
41471;DHT22;27211;51.220;5.308;2024-03-07T04:51:11;5.90;99.90
41471;DHT22;27211;51.220;5.308;2024-03-07T04:53:37;5.90;99.90
41471;DHT22;27211;51.220;5.308;2024-03-07T04:56:07;5.60;99.90
41471;DHT22;27211;51.220;5.308;2024-03-07T04:58:35;5.60;99.90
41471;DHT22;27211;51.220;5.308;2024-03-07T05:01:01;5.70;99.90
41471;DHT22;27211;51.220;5.308;2024-03-07T05:03:27;5.50;99.90
41471;DHT22;27211;51.220;5.308;2024-03-07T05:05:53;5.50;99.90
41471;DHT22;27211;51.220;5.308;2024-03-07T05:08:18;5.50;99.90
41471;DHT22;27211;51.220;5.308;2024-03-07T05:10:44;5.70;99.90
41471;DHT22;27211;51.220;5.308;2024-03-07T05:13:10;5.60;99.90
41471;DHT22;27211;51.220;5.308;2024-03-07T05:15:36;5.80;99.90
41471;DHT22;27211;51.220;5.308;2024-03-07T05:18:01;5.70;99.90
41471;DHT22;27211;51.220;5.308;2024-03-07T05:20:27;5.70;99.90
41471;DHT22;27211;51.220;5.308;2024-03-07T05:22:53;5.70;99.90
41471;DHT22;27211;51.220;5.308;2024-03-07T05:25:19;5.80;99.90
41471;DHT22;27211;51.220;5.308;2024-03-07T05:27:47;5.60;99.90
41471;DHT22;27211;51.220;5.308;2024-03-07T05:30:15;5.40;99.90
41471;DHT22;27211;51.220;5.308;2024-03-07T05:32:41;5.40;99.90
41471;DHT22;27211;51.220;5.308;2024-03-07T05:35:06;5.50;99.90
41471;DHT22;27211;51.220;5.308;2024-03-07T05:37:32;5.50;99.90
41471;DHT22;27211;51.220;5.308;2024-03-07T05:39:58;5.40;99.90
41471;DHT22;27211;51.220;5.308;2024-03-07T05:42:24;5.20;99.90
41471;DHT22;27211;51.220;5.308;2024-03-07T05:44:51;5.20;99.90
41471;DHT22;27211;51.220;5.308;2024-03-07T05:47:19;5.20;99.90
41471;DHT22;27211;51.220;5.308;2024-03-07T05:49:44;5.10;99.90
41471;DHT22;27211;51.220;5.308;2024-03-07T05:52:10;5.10;99.90
41471;DHT22;27211;51.220;5.308;2024-03-07T05:54:36;5.10;99.90
41471;DHT22;27211;51.220;5.308;2024-03-07T05:57:02;5.00;99.90
41471;DHT22;27211;51.220;5.308;2024-03-07T05:59:28;4.90;99.90
41471;DHT22;27211;51.220;5.308;2024-03-07T06:01:57;4.90;99.90
41471;DHT22;27211;51.220;5.308;2024-03-07T06:04:22;5.00;99.90
41471;DHT22;27211;51.220;5.308;2024-03-07T06:06:48;5.10;99.90
41471;DHT22;27211;51.220;5.308;2024-03-07T06:09:14;5.00;99.90
41471;DHT22;27211;51.220;5.308;2024-03-07T06:11:40;4.90;99.90
41471;DHT22;27211;51.220;5.308;2024-03-07T06:14:07;4.90;99.90
41471;DHT22;27211;51.220;5.308;2024-03-07T06:16:35;4.90;99.90
41471;DHT22;27211;51.220;5.308;2024-03-07T06:19:01;5.00;99.90
41471;DHT22;27211;51.220;5.308;2024-03-07T06:21:27;4.90;99.90
41471;DHT22;27211;51.220;5.308;2024-03-07T06:23:54;4.90;99.90
41471;DHT22;27211;51.220;5.308;2024-03-07T06:26:25;4.90;99.90
41471;DHT22;27211;51.220;5.308;2024-03-07T06:29:02;5.00;99.90
41471;DHT22;27211;51.220;5.308;2024-03-07T06:31:30;4.90;99.90
41471;DHT22;27211;51.220;5.308;2024-03-07T06:33:56;5.00;99.90
41471;DHT22;27211;51.220;5.308;2024-03-07T06:36:22;5.00;99.90
41471;DHT22;27211;51.220;5.308;2024-03-07T06:38:48;5.00;99.90
41471;DHT22;27211;51.220;5.308;2024-03-07T06:41:14;5.10;99.90
41471;DHT22;27211;51.220;5.308;2024-03-07T06:43:40;5.10;99.90
41471;DHT22;27211;51.220;5.308;2024-03-07T06:46:05;5.00;99.90
41471;DHT22;27211;51.220;5.308;2024-03-07T06:48:31;5.10;99.90
41471;DHT22;27211;51.220;5.308;2024-03-07T06:50:57;5.10;99.90
41471;DHT22;27211;51.220;5.308;2024-03-07T06:53:22;5.30;99.90
41471;DHT22;27211;51.220;5.308;2024-03-07T06:55:51;5.50;99.90
41471;DHT22;27211;51.220;5.308;2024-03-07T06:58:21;5.50;99.90
41471;DHT22;27211;51.220;5.308;2024-03-07T07:00:50;5.70;99.90
41471;DHT22;27211;51.220;5.308;2024-03-07T07:03:20;5.80;99.90
41471;DHT22;27211;51.220;5.308;2024-03-07T07:05:47;5.80;99.90
41471;DHT22;27211;51.220;5.308;2024-03-07T07:08:13;5.80;99.90
41471;DHT22;27211;51.220;5.308;2024-03-07T07:10:39;6.10;99.90
41471;DHT22;27211;51.220;5.308;2024-03-07T07:13:05;6.30;99.90
41471;DHT22;27211;51.220;5.308;2024-03-07T07:15:31;6.60;99.90
41471;DHT22;27211;51.220;5.308;2024-03-07T07:17:57;6.70;99.90
41471;DHT22;27211;51.220;5.308;2024-03-07T07:20:23;6.90;99.90
41471;DHT22;27211;51.220;5.308;2024-03-07T07:22:49;7.10;99.90
41471;DHT22;27211;51.220;5.308;2024-03-07T07:25:15;7.60;99.90
41471;DHT22;27211;51.220;5.308;2024-03-07T07:30:08;8.10;99.90
41471;DHT22;27211;51.220;5.308;2024-03-07T07:32:35;8.30;99.90
41471;DHT22;27211;51.220;5.308;2024-03-07T07:35:02;8.60;99.90
41471;DHT22;27211;51.220;5.308;2024-03-07T07:37:27;8.60;99.90
41471;DHT22;27211;51.220;5.308;2024-03-07T07:39:53;8.70;99.90
41471;DHT22;27211;51.220;5.308;2024-03-07T07:42:18;8.70;99.90
41471;DHT22;27211;51.220;5.308;2024-03-07T07:44:45;8.80;99.90
41471;DHT22;27211;51.220;5.308;2024-03-07T07:47:10;8.90;99.90
41471;DHT22;27211;51.220;5.308;2024-03-07T07:49:37;9.10;99.90
41471;DHT22;27211;51.220;5.308;2024-03-07T07:52:04;9.50;99.90
41471;DHT22;27211;51.220;5.308;2024-03-07T07:54:29;9.70;99.90
41471;DHT22;27211;51.220;5.308;2024-03-07T07:56:55;10.10;99.90
41471;DHT22;27211;51.220;5.308;2024-03-07T07:59:21;10.20;99.90
41471;DHT22;27211;51.220;5.308;2024-03-07T08:01:46;10.10;99.90
41471;DHT22;27211;51.220;5.308;2024-03-07T08:04:12;9.80;99.90
41471;DHT22;27211;51.220;5.308;2024-03-07T08:06:38;9.60;99.90
41471;DHT22;27211;51.220;5.308;2024-03-07T08:09:03;9.70;99.90
41471;DHT22;27211;51.220;5.308;2024-03-07T08:11:35;9.90;99.90
41471;DHT22;27211;51.220;5.308;2024-03-07T08:14:02;9.80;99.90
41471;DHT22;27211;51.220;5.308;2024-03-07T08:16:28;10.10;99.90
41471;DHT22;27211;51.220;5.308;2024-03-07T08:18:53;10.60;99.90
41471;DHT22;27211;51.220;5.308;2024-03-07T08:21:19;10.90;99.90
41471;DHT22;27211;51.220;5.308;2024-03-07T08:23:45;11.00;99.90
41471;DHT22;27211;51.220;5.308;2024-03-07T08:26:11;11.50;99.90
41471;DHT22;27211;51.220;5.308;2024-03-07T08:28:37;10.80;99.90
41471;DHT22;27211;51.220;5.308;2024-03-07T08:31:03;11.10;99.90
41471;DHT22;27211;51.220;5.308;2024-03-07T08:33:29;11.40;99.90
41471;DHT22;27211;51.220;5.308;2024-03-07T08:35:58;12.10;99.90
41471;DHT22;27211;51.220;5.308;2024-03-07T08:38:24;11.90;99.90
41471;DHT22;27211;51.220;5.308;2024-03-07T08:40:50;12.50;99.90
41471;DHT22;27211;51.220;5.308;2024-03-07T08:43:15;12.90;99.90
41471;DHT22;27211;51.220;5.308;2024-03-07T08:45:41;13.50;99.90
41471;DHT22;27211;51.220;5.308;2024-03-07T08:48:07;13.60;99.90
41471;DHT22;27211;51.220;5.308;2024-03-07T08:50:34;13.90;99.90
41471;DHT22;27211;51.220;5.308;2024-03-07T08:53:00;13.70;99.90
41471;DHT22;27211;51.220;5.308;2024-03-07T08:55:32;13.60;99.90
41471;DHT22;27211;51.220;5.308;2024-03-07T08:57:58;14.00;99.90
41471;DHT22;27211;51.220;5.308;2024-03-07T09:00:23;14.10;99.90
41471;DHT22;27211;51.220;5.308;2024-03-07T09:02:58;14.20;99.90
41471;DHT22;27211;51.220;5.308;2024-03-07T09:05:24;14.30;99.90
41471;DHT22;27211;51.220;5.308;2024-03-07T09:07:50;14.20;99.90
41471;DHT22;27211;51.220;5.308;2024-03-07T09:10:16;14.10;99.90
41471;DHT22;27211;51.220;5.308;2024-03-07T09:12:42;14.30;99.90
41471;DHT22;27211;51.220;5.308;2024-03-07T09:15:09;13.50;99.90
41471;DHT22;27211;51.220;5.308;2024-03-07T09:17:36;13.20;99.90
41471;DHT22;27211;51.220;5.308;2024-03-07T09:20:02;13.40;99.90
41471;DHT22;27211;51.220;5.308;2024-03-07T09:22:30;14.60;99.90
41471;DHT22;27211;51.220;5.308;2024-03-07T09:24:57;15.30;99.90
41471;DHT22;27211;51.220;5.308;2024-03-07T09:27:22;16.00;99.90
41471;DHT22;27211;51.220;5.308;2024-03-07T09:29:48;15.70;99.90
41471;DHT22;27211;51.220;5.308;2024-03-07T09:32:14;15.60;99.80
41471;DHT22;27211;51.220;5.308;2024-03-07T09:34:40;16.00;99.80
41471;DHT22;27211;51.220;5.308;2024-03-07T09:37:05;16.00;99.10
41471;DHT22;27211;51.220;5.308;2024-03-07T09:39:34;15.40;98.80
41471;DHT22;27211;51.220;5.308;2024-03-07T09:42:07;14.80;99.70
41471;DHT22;27211;51.220;5.308;2024-03-07T09:44:36;14.60;99.90
41471;DHT22;27211;51.220;5.308;2024-03-07T09:47:05;14.90;99.90
41471;DHT22;27211;51.220;5.308;2024-03-07T09:49:30;14.70;99.90
41471;DHT22;27211;51.220;5.308;2024-03-07T09:51:58;15.00;99.90
41471;DHT22;27211;51.220;5.308;2024-03-07T09:54:25;15.30;99.70
41471;DHT22;27211;51.220;5.308;2024-03-07T09:56:54;15.40;99.30
41471;DHT22;27211;51.220;5.308;2024-03-07T09:59:23;15.70;98.60
41471;DHT22;27211;51.220;5.308;2024-03-07T10:01:53;15.30;99.20
41471;DHT22;27211;51.220;5.308;2024-03-07T10:04:22;15.40;98.70
41471;DHT22;27211;51.220;5.308;2024-03-07T10:06:50;15.20;99.10
41471;DHT22;27211;51.220;5.308;2024-03-07T10:09:18;14.90;99.60
41471;DHT22;27211;51.220;5.308;2024-03-07T10:11:54;15.50;99.60
41471;DHT22;27211;51.220;5.308;2024-03-07T10:14:20;16.30;98.50
41471;DHT22;27211;51.220;5.308;2024-03-07T10:16:46;16.60;97.00
41471;DHT22;27211;51.220;5.308;2024-03-07T10:19:11;16.70;95.90
41471;DHT22;27211;51.220;5.308;2024-03-07T10:21:37;15.70;96.50
41471;DHT22;27211;51.220;5.308;2024-03-07T10:24:08;15.10;97.40
41471;DHT22;27211;51.220;5.308;2024-03-07T10:26:39;15.50;98.00
41471;DHT22;27211;51.220;5.308;2024-03-07T10:29:05;16.40;97.20
41471;DHT22;27211;51.220;5.308;2024-03-07T10:31:33;16.40;95.60
41471;DHT22;27211;51.220;5.308;2024-03-07T10:34:02;16.20;96.20
41471;DHT22;27211;51.220;5.308;2024-03-07T10:36:31;15.40;96.90
41471;DHT22;27211;51.220;5.308;2024-03-07T10:39:00;14.80;97.60
41471;DHT22;27211;51.220;5.308;2024-03-07T10:41:28;15.50;97.40
41471;DHT22;27211;51.220;5.308;2024-03-07T10:43:57;15.70;96.60
41471;DHT22;27211;51.220;5.308;2024-03-07T10:46:24;15.10;97.10
41471;DHT22;27211;51.220;5.308;2024-03-07T10:48:56;15.40;96.90
41471;DHT22;27211;51.220;5.308;2024-03-07T10:51:26;15.40;96.50
41471;DHT22;27211;51.220;5.308;2024-03-07T10:59:18;14.90;97.10
41471;DHT22;27211;51.220;5.308;2024-03-07T11:02:10;14.10;97.80
41471;DHT22;27211;51.220;5.308;2024-03-07T11:04:32;14.30;97.90
41471;DHT22;27211;51.220;5.308;2024-03-07T11:06:59;14.70;97.60
41471;DHT22;27211;51.220;5.308;2024-03-07T11:09:26;14.60;96.90
41471;DHT22;27211;51.220;5.308;2024-03-07T11:11:58;14.40;97.20
41471;DHT22;27211;51.220;5.308;2024-03-07T11:14:25;14.10;97.80
41471;DHT22;27211;51.220;5.308;2024-03-07T11:16:51;14.80;97.00
41471;DHT22;27211;51.220;5.308;2024-03-07T11:19:26;14.60;96.70
41471;DHT22;27211;51.220;5.308;2024-03-07T11:22:03;14.70;96.40
41471;DHT22;27211;51.220;5.308;2024-03-07T11:24:40;15.80;94.70
41471;DHT22;27211;51.220;5.308;2024-03-07T11:27:11;15.00;95.20
41471;DHT22;27211;51.220;5.308;2024-03-07T11:29:46;15.30;95.50
41471;DHT22;27211;51.220;5.308;2024-03-07T11:32:12;15.10;95.20
41471;DHT22;27211;51.220;5.308;2024-03-07T11:34:39;14.30;96.10
41471;DHT22;27211;51.220;5.308;2024-03-07T11:37:08;13.90;96.30
41471;DHT22;27211;51.220;5.308;2024-03-07T11:42:08;13.90;96.40
41471;DHT22;27211;51.220;5.308;2024-03-07T11:44:34;14.00;96.10
41471;DHT22;27211;51.220;5.308;2024-03-07T11:47:01;13.60;96.60
41471;DHT22;27211;51.220;5.308;2024-03-07T11:49:34;13.60;96.70
41471;DHT22;27211;51.220;5.308;2024-03-07T11:52:01;14.40;96.10
41471;DHT22;27211;51.220;5.308;2024-03-07T11:54:30;14.80;95.00
41471;DHT22;27211;51.220;5.308;2024-03-07T11:56:56;14.90;95.00
41471;DHT22;27211;51.220;5.308;2024-03-07T11:59:25;14.60;94.80
41471;DHT22;27211;51.220;5.308;2024-03-07T12:01:57;14.50;94.70
41471;DHT22;27211;51.220;5.308;2024-03-07T12:04:26;15.10;94.50
41471;DHT22;27211;51.220;5.308;2024-03-07T12:06:52;15.30;93.30
41471;DHT22;27211;51.220;5.308;2024-03-07T12:09:18;14.30;93.90
41471;DHT22;27211;51.220;5.308;2024-03-07T12:11:51;13.50;94.40
41471;DHT22;27211;51.220;5.308;2024-03-07T12:14:21;13.70;93.90
41471;DHT22;27211;51.220;5.308;2024-03-07T12:16:47;13.40;94.60
41471;DHT22;27211;51.220;5.308;2024-03-07T12:19:12;13.00;94.60
41471;DHT22;27211;51.220;5.308;2024-03-07T12:21:38;14.20;94.30
41471;DHT22;27211;51.220;5.308;2024-03-07T12:24:11;15.50;92.50
41471;DHT22;27211;51.220;5.308;2024-03-07T12:26:40;16.20;92.00
41471;DHT22;27211;51.220;5.308;2024-03-07T12:29:10;16.10;89.70
41471;DHT22;27211;51.220;5.308;2024-03-07T12:31:42;15.20;89.30
41471;DHT22;27211;51.220;5.308;2024-03-07T12:34:08;14.90;90.20
41471;DHT22;27211;51.220;5.308;2024-03-07T12:36:34;14.60;90.60
41471;DHT22;27211;51.220;5.308;2024-03-07T12:39:23;15.10;90.00
41471;DHT22;27211;51.220;5.308;2024-03-07T12:41:57;16.10;87.00
41471;DHT22;27211;51.220;5.308;2024-03-07T12:44:23;16.80;84.60
41471;DHT22;27211;51.220;5.308;2024-03-07T12:46:51;16.80;83.70
41471;DHT22;27211;51.220;5.308;2024-03-07T12:49:24;17.40;84.80
41471;DHT22;27211;51.220;5.308;2024-03-07T12:51:56;18.90;81.90
41471;DHT22;27211;51.220;5.308;2024-03-07T12:54:24;19.00;77.30
41471;DHT22;27211;51.220;5.308;2024-03-07T12:56:52;18.60;77.00
41471;DHT22;27211;51.220;5.308;2024-03-07T12:59:18;18.50;76.90
41471;DHT22;27211;51.220;5.308;2024-03-07T13:01:44;18.80;77.20
41471;DHT22;27211;51.220;5.308;2024-03-07T13:04:13;18.70;75.70
41471;DHT22;27211;51.220;5.308;2024-03-07T13:06:39;18.10;76.50
41471;DHT22;27211;51.220;5.308;2024-03-07T13:09:11;18.00;75.30
41471;DHT22;27211;51.220;5.308;2024-03-07T13:11:38;17.90;75.10
41471;DHT22;27211;51.220;5.308;2024-03-07T13:14:07;17.60;74.90
41471;DHT22;27211;51.220;5.308;2024-03-07T13:16:34;17.60;74.90
41471;DHT22;27211;51.220;5.308;2024-03-07T13:18:59;17.50;74.40
41471;DHT22;27211;51.220;5.308;2024-03-07T13:21:26;17.50;75.40
41471;DHT22;27211;51.220;5.308;2024-03-07T13:23:52;17.80;75.00
41471;DHT22;27211;51.220;5.308;2024-03-07T13:26:20;18.20;75.10
41471;DHT22;27211;51.220;5.308;2024-03-07T13:28:53;18.80;72.90
41471;DHT22;27211;51.220;5.308;2024-03-07T13:31:19;19.00;71.80
41471;DHT22;27211;51.220;5.308;2024-03-07T13:33:45;19.40;71.30
41471;DHT22;27211;51.220;5.308;2024-03-07T13:36:11;19.00;72.60
41471;DHT22;27211;51.220;5.308;2024-03-07T13:38:36;18.90;71.80
41471;DHT22;27211;51.220;5.308;2024-03-07T13:41:03;18.20;72.00
41471;DHT22;27211;51.220;5.308;2024-03-07T13:43:32;17.80;74.30
41471;DHT22;27211;51.220;5.308;2024-03-07T13:45:59;18.20;73.20
41471;DHT22;27211;51.220;5.308;2024-03-07T13:48:25;17.90;72.80
